Terminal Aerodrome Forecast
Issued by NWS Grand Junction, CO

Home | Current Version | Previous Version | Text Only | Print | Product List | Glossary On
Versions: 1 2 3 4 5 6 7 8 9 10 11 12 13
000
FTUS45 KGJT 051739
TAFGJT
TAF
KGJT 051739Z 0518/0618 24003KT P6SM FEW200
     FM052000 30009KT P6SM SCT200
     FM060100 31008KT P6SM SCT150
     FM060700 04004KT P6SM SCT250
     FM061200 10004KT P6SM SCT250=

USA.gov is the U.S. government's official web portal to all federal, state and local government web resources and services.